createdAt,value
2022-08-14T00:05:37.181Z,52.54
2022-08-14T00:12:41.995Z,53.02
2022-08-14T00:19:43.627Z,53.42
2022-08-14T00:26:47.862Z,53.63
2022-08-14T00:33:54.444Z,53.94
2022-08-14T00:41:00.661Z,54.59
2022-08-14T00:48:02.304Z,54.97
2022-08-14T00:55:05.832Z,55.17
2022-08-14T01:02:09.887Z,55.14
2022-08-14T01:09:12.871Z,55.68
2022-08-14T01:16:17.042Z,56.06
2022-08-14T01:23:24.065Z,56.23
2022-08-14T01:30:43.509Z,56.34
2022-08-14T01:37:54.690Z,56.60
2022-08-14T01:44:58.482Z,56.93
2022-08-14T01:52:00.117Z,57.13
2022-08-14T01:59:01.816Z,57.42
2022-08-14T02:06:32.261Z,57.40
2022-08-14T02:13:25.118Z,57.43
2022-08-14T02:20:29.341Z,57.64
2022-08-14T02:28:24.171Z,57.69
2022-08-14T02:34:53.528Z,57.64
2022-08-14T02:41:58.127Z,57.92
2022-08-14T02:49:04.190Z,58.09
2022-08-14T02:56:30.662Z,58.29
2022-08-14T03:03:31.710Z,58.25
2022-08-14T03:10:34.521Z,58.46
2022-08-14T03:17:40.924Z,58.42
2022-08-14T03:24:58.228Z,58.55
2022-08-14T03:31:59.954Z,59.14
2022-08-14T03:39:15.590Z,59.22
2022-08-14T03:46:52.216Z,59.31
2022-08-14T03:53:54.724Z,59.39
2022-08-14T04:00:56.325Z,59.74
2022-08-14T04:08:08.222Z,60.40
2022-08-14T04:15:21.205Z,60.54
2022-08-14T04:22:25.298Z,60.61
2022-08-14T04:29:26.950Z,60.59
2022-08-14T04:36:28.566Z,60.25
2022-08-14T04:43:38.614Z,60.39
2022-08-14T04:50:53.818Z,60.41
2022-08-14T04:57:56.856Z,60.22
2022-08-14T05:05:00.512Z,60.11
2022-08-14T05:13:13.044Z,59.99
2022-08-14T05:19:29.184Z,60.05
2022-08-14T05:26:31.483Z,59.57
2022-08-14T05:33:34.584Z,59.34
2022-08-14T05:40:36.730Z,58.97
2022-08-14T05:47:39.965Z,58.93
2022-08-14T05:54:42.168Z,58.30
2022-08-14T06:01:46.030Z,58.21
2022-08-14T06:08:48.399Z,58.37
2022-08-14T06:15:51.095Z,58.07
2022-08-14T06:22:54.830Z,57.93
2022-08-14T06:29:57.983Z,57.16
2022-08-14T06:37:00.005Z,56.79
2022-08-14T06:44:01.660Z,56.35
2022-08-14T06:51:03.937Z,55.87
2022-08-14T06:58:05.883Z,55.61
2022-08-14T07:06:02.172Z,54.64
2022-08-14T07:13:14.104Z,53.96
2022-08-14T07:20:20.416Z,53.56
2022-08-14T07:27:33.409Z,51.46
2022-08-14T07:34:41.311Z,51.84
2022-08-14T07:41:44.574Z,49.45
2022-08-14T07:48:48.379Z,48.09
2022-08-14T07:56:00.540Z,44.14
2022-08-14T08:03:11.179Z,43.16
2022-08-14T08:10:57.232Z,42.64
2022-08-14T08:18:01.255Z,42.52
2022-08-14T08:25:04.333Z,41.06
2022-08-14T08:32:15.317Z,40.24
2022-08-14T08:39:22.160Z,38.57
2022-08-14T08:46:24.662Z,38.60
2022-08-14T08:53:33.731Z,37.45
2022-08-14T09:00:36.627Z,36.61
2022-08-14T09:07:38.363Z,36.56
2022-08-14T09:14:53.143Z,34.58
2022-08-14T09:21:55.075Z,34.34
2022-08-14T09:28:57.185Z,33.09
2022-08-14T09:36:13.688Z,31.09
2022-08-14T09:43:43.429Z,31.55
2022-08-14T09:50:46.153Z,31.47
2022-08-14T09:57:47.830Z,30.60
2022-08-14T10:05:13.156Z,30.24
2022-08-14T10:12:18.892Z,29.52
2022-08-14T10:19:30.568Z,28.44
2022-08-14T10:26:38.068Z,27.50
2022-08-14T10:33:41.441Z,27.72
2022-08-14T10:40:44.556Z,28.32
2022-08-14T10:48:07.911Z,27.71
2022-08-14T10:55:14.959Z,26.26
2022-08-14T11:02:45.152Z,26.73
2022-08-14T11:09:57.346Z,26.79
2022-08-14T11:16:59.449Z,26.12
2022-08-14T11:24:01.564Z,26.66
2022-08-14T11:31:23.699Z,25.74
2022-08-14T11:38:25.839Z,24.63
2022-08-14T11:45:34.287Z,23.96
2022-08-14T11:52:40.216Z,24.10
2022-08-14T11:59:44.449Z,24.24
2022-08-14T12:06:55.927Z,23.49
2022-08-14T12:13:57.623Z,22.80
2022-08-14T12:20:59.927Z,22.45
2022-08-14T12:28:05.853Z,22.24
2022-08-14T12:35:10.658Z,22.29
2022-08-14T12:42:34.303Z,23.60
2022-08-14T12:49:34.335Z,23.64
2022-08-14T12:56:36.046Z,22.54
2022-08-14T13:03:39.447Z,22.19
2022-08-14T13:10:51.141Z,23.41
2022-08-14T13:17:55.715Z,22.77
2022-08-14T13:24:57.595Z,22.11
2022-08-14T13:31:59.246Z,21.03
2022-08-14T13:39:02.206Z,20.84
2022-08-14T13:46:03.872Z,20.33
2022-08-14T13:53:05.944Z,19.97
2022-08-14T14:00:13.308Z,19.27
2022-08-14T14:07:21.387Z,19.45
2022-08-14T14:14:44.617Z,18.36
2022-08-14T14:21:50.602Z,19.43
2022-08-14T14:28:57.142Z,17.40
2022-08-14T14:35:59.184Z,17.50
2022-08-14T14:43:01.270Z,17.97
2022-08-14T14:50:08.868Z,17.44
2022-08-14T14:57:13.846Z,17.37
2022-08-14T15:04:20.988Z,17.65
2022-08-14T15:11:22.861Z,18.08
2022-08-14T15:18:38.435Z,18.24
2022-08-14T15:25:45.538Z,18.10
2022-08-14T15:32:55.412Z,18.07
2022-08-14T15:39:57.254Z,18.16
2022-08-14T15:46:59.718Z,18.53
2022-08-14T15:54:01.456Z,18.30
2022-08-14T16:01:43.589Z,19.08
2022-08-14T16:08:41.917Z,19.34
2022-08-14T16:15:45.405Z,19.50
2022-08-14T16:22:58.295Z,19.70
2022-08-14T16:30:01.298Z,19.41
2022-08-14T16:37:06.236Z,19.91
2022-08-14T16:44:13.834Z,20.08
2022-08-14T16:51:36.473Z,20.72
2022-08-14T16:58:40.877Z,21.21
2022-08-14T17:05:43.792Z,22.35
2022-08-14T17:12:48.822Z,22.83
2022-08-14T17:20:02.081Z,23.41
2022-08-14T17:27:10.760Z,24.13
2022-08-14T17:34:18.708Z,24.55
2022-08-14T17:41:23.958Z,25.25
2022-08-14T17:49:14.088Z,25.80
2022-08-14T17:56:01.635Z,25.99
2022-08-14T18:03:05.296Z,26.40
2022-08-14T18:10:52.118Z,26.52
2022-08-14T18:17:30.577Z,27.65
2022-08-14T18:24:36.589Z,28.94
2022-08-14T18:31:43.939Z,29.99
2022-08-14T18:38:59.926Z,30.55
2022-08-14T18:46:02.317Z,30.99
2022-08-14T18:53:07.551Z,32.00
2022-08-14T19:00:33.940Z,32.20
2022-08-14T19:07:37.002Z,32.20
2022-08-14T19:14:46.351Z,32.50
2022-08-14T19:21:56.097Z,33.01
2022-08-14T19:28:58.470Z,33.60
2022-08-14T19:36:28.868Z,33.85
2022-08-14T19:43:55.042Z,34.26
2022-08-14T19:51:01.504Z,34.73
2022-08-14T19:58:03.812Z,35.80
2022-08-14T20:05:06.268Z,36.34
2022-08-14T20:12:28.954Z,36.64
2022-08-14T20:19:41.753Z,37.02
2022-08-14T20:26:47.146Z,38.00
2022-08-14T20:34:24.862Z,38.23
2022-08-14T20:41:30.024Z,38.66
2022-08-14T20:48:52.673Z,39.02
2022-08-14T20:55:54.608Z,39.16
2022-08-14T21:02:56.929Z,39.05
2022-08-14T21:10:35.358Z,40.04
2022-08-14T21:17:32.213Z,40.43
2022-08-14T21:24:47.380Z,40.80
2022-08-14T21:31:56.062Z,41.14
2022-08-14T21:38:58.960Z,40.95
2022-08-14T21:46:00.905Z,41.70
2022-08-14T21:53:04.045Z,42.19
2022-08-14T22:00:31.592Z,42.35
2022-08-14T22:07:36.705Z,43.00
2022-08-14T22:14:43.773Z,43.35
2022-08-14T22:21:46.678Z,43.45
2022-08-14T22:28:55.755Z,44.09
2022-08-14T22:35:57.536Z,44.69
2022-08-14T22:43:08.279Z,45.17
2022-08-14T22:50:30.630Z,45.90
2022-08-14T22:57:37.612Z,46.46
2022-08-14T23:04:53.991Z,47.07
2022-08-14T23:11:56.859Z,47.28
2022-08-14T23:18:58.494Z,47.40
2022-08-14T23:26:48.412Z,47.85
2022-08-14T23:33:21.761Z,48.19
2022-08-14T23:40:26.395Z,48.45
2022-08-14T23:47:31.233Z,48.70
2022-08-14T23:54:52.828Z,48.88
